createdAt,value
2023-01-11T00:02:37.248Z,3.67
2023-01-11T00:07:37.164Z,3.71
2023-01-11T00:12:37.519Z,3.83
2023-01-11T00:17:37.033Z,3.97
2023-01-11T00:22:36.931Z,4.04
2023-01-11T00:27:36.834Z,4.08
2023-01-11T00:32:36.851Z,4.07
2023-01-11T00:37:36.679Z,4.03
2023-01-11T00:42:36.688Z,3.96
2023-01-11T00:47:36.591Z,3.90
2023-01-11T00:52:36.547Z,3.98
2023-01-11T00:57:37.187Z,4.04
2023-01-11T01:02:36.434Z,4.12
2023-01-11T01:07:36.307Z,4.21
2023-01-11T01:12:36.281Z,4.32
2023-01-11T01:17:36.198Z,4.40
2023-01-11T01:22:36.315Z,4.52
2023-01-11T01:27:36.037Z,4.61
2023-01-11T01:32:35.976Z,4.67
2023-01-11T01:37:35.994Z,4.76
2023-01-11T01:42:36.473Z,4.77
2023-01-11T01:47:35.863Z,4.84
2023-01-11T01:52:35.735Z,4.89
2023-01-11T01:57:35.652Z,4.94
2023-01-11T02:02:35.687Z,4.95
2023-01-11T02:07:35.574Z,4.89
2023-01-11T02:12:35.517Z,4.80
2023-01-11T02:17:35.385Z,4.76
2023-01-11T02:22:35.401Z,4.79
2023-01-11T02:27:35.311Z,4.86
2023-01-11T02:32:36.653Z,4.88
2023-01-11T02:37:35.158Z,4.95
2023-01-11T02:42:35.119Z,4.98
2023-01-11T02:47:35.024Z,5.02
2023-01-11T02:52:34.953Z,5.01
2023-01-11T02:57:34.896Z,5.07
2023-01-11T03:02:34.814Z,5.05
2023-01-11T03:07:34.758Z,5.09
2023-01-11T03:12:34.727Z,5.09
2023-01-11T03:17:34.679Z,5.12
2023-01-11T03:22:34.636Z,5.17
2023-01-11T03:27:34.589Z,5.22
2023-01-11T03:32:34.421Z,5.22
2023-01-11T03:37:34.389Z,5.23
2023-01-11T03:42:34.309Z,5.30
2023-01-11T03:47:34.292Z,5.31
2023-01-11T03:52:34.201Z,5.34
2023-01-11T03:57:34.149Z,5.35
2023-01-11T04:02:34.049Z,5.41
2023-01-11T04:07:34.005Z,5.43
2023-01-11T04:12:33.941Z,5.43
2023-01-11T04:17:33.862Z,5.41
2023-01-11T04:22:33.800Z,5.43
2023-01-11T04:27:33.711Z,5.46
2023-01-11T04:32:33.684Z,5.49
2023-01-11T04:37:33.613Z,5.57
2023-01-11T04:42:33.531Z,5.68
2023-01-11T04:47:33.466Z,5.71
2023-01-11T04:52:33.398Z,5.78
2023-01-11T04:57:33.351Z,5.82
2023-01-11T05:02:33.276Z,5.86
2023-01-11T05:07:33.291Z,5.92
2023-01-11T05:12:33.131Z,5.98
2023-01-11T05:17:33.097Z,6.09
2023-01-11T05:22:33.017Z,6.14
2023-01-11T05:27:33.073Z,6.21
2023-01-11T05:32:32.879Z,6.28
2023-01-11T05:37:32.801Z,6.30
2023-01-11T05:42:34.066Z,6.30
2023-01-11T05:47:32.708Z,6.30
2023-01-11T05:52:32.608Z,6.29
2023-01-11T05:57:32.648Z,6.26
2023-01-11T06:02:32.624Z,6.28
2023-01-11T06:07:32.425Z,6.21
2023-01-11T06:12:32.342Z,6.21
2023-01-11T06:17:32.301Z,6.25
2023-01-11T06:22:32.249Z,6.29
2023-01-11T06:27:32.224Z,6.32
2023-01-11T06:32:32.139Z,6.38
2023-01-11T06:37:32.030Z,6.43
2023-01-11T06:42:32.001Z,6.41
2023-01-11T06:47:31.915Z,6.41
2023-01-11T06:52:31.820Z,6.36
2023-01-11T06:57:31.747Z,6.36
2023-01-11T07:02:31.760Z,6.40
2023-01-11T07:07:31.642Z,6.47
2023-01-11T07:12:31.607Z,6.50
2023-01-11T07:17:31.513Z,6.54
2023-01-11T07:22:31.463Z,6.59
2023-01-11T07:27:31.377Z,6.61
2023-01-11T07:32:31.303Z,6.62
2023-01-11T07:37:31.236Z,6.59
2023-01-11T07:42:31.187Z,6.62
2023-01-11T07:47:31.120Z,6.65
2023-01-11T07:52:31.098Z,6.68
2023-01-11T07:57:30.983Z,6.72
2023-01-11T08:02:31.049Z,6.80
2023-01-11T08:07:30.878Z,6.91
2023-01-11T08:12:30.794Z,7.15
2023-01-11T08:17:30.724Z,7.31
2023-01-11T08:22:30.650Z,7.44
2023-01-11T08:27:30.572Z,7.53
2023-01-11T08:32:30.526Z,7.56
2023-01-11T08:37:30.451Z,7.55
2023-01-11T08:42:30.412Z,7.58
2023-01-11T08:47:30.377Z,7.59
2023-01-11T08:52:30.364Z,7.63
2023-01-11T08:57:30.203Z,7.71
2023-01-11T09:02:30.186Z,7.79
2023-01-11T09:07:30.082Z,7.89
2023-01-11T09:12:30.029Z,7.94
2023-01-11T09:17:29.953Z,7.94
2023-01-11T09:22:29.881Z,7.97
2023-01-11T09:27:29.799Z,7.96
2023-01-11T09:32:29.721Z,8.02
2023-01-11T09:37:29.667Z,8.11
2023-01-11T09:42:29.624Z,8.20
2023-01-11T09:47:29.574Z,8.29
2023-01-11T09:52:29.484Z,8.29
2023-01-11T09:57:29.500Z,8.28
2023-01-11T10:02:29.380Z,8.21
2023-01-11T10:07:29.270Z,8.25
2023-01-11T10:18:38.957Z,8.33
2023-01-11T10:22:30.091Z,8.39
2023-01-11T10:27:29.008Z,8.40
2023-01-11T10:32:28.978Z,8.44
2023-01-11T10:37:28.858Z,8.50
2023-01-11T10:42:28.887Z,8.51
2023-01-11T10:47:28.764Z,8.53
2023-01-11T10:52:28.711Z,8.55
2023-01-11T10:57:28.640Z,8.62
2023-01-11T11:02:28.719Z,8.63
2023-01-11T11:07:28.476Z,8.79
2023-01-11T11:12:28.485Z,9.01
2023-01-11T11:17:28.421Z,9.09
2023-01-11T11:22:28.352Z,9.04
2023-01-11T11:27:28.239Z,9.05
2023-01-11T11:32:28.262Z,9.04
2023-01-11T11:37:28.153Z,9.09
2023-01-11T11:42:28.061Z,9.12
2023-01-11T11:47:27.987Z,9.06
2023-01-11T11:52:27.919Z,8.99
2023-01-11T11:57:28.529Z,9.02
2023-01-11T12:02:28.102Z,9.12
2023-01-11T12:07:27.703Z,9.06
2023-01-11T12:12:29.517Z,9.09
2023-01-11T12:17:27.651Z,9.04
2023-01-11T12:22:27.550Z,9.02
2023-01-11T12:27:27.480Z,9.06
2023-01-11T12:32:27.412Z,9.12
2023-01-11T12:37:27.369Z,9.23
2023-01-11T12:42:27.345Z,9.27
2023-01-11T12:47:27.270Z,9.23
2023-01-11T12:52:29.120Z,9.15
2023-01-11T12:57:27.128Z,9.10
2023-01-11T13:02:28.020Z,9.04
2023-01-11T13:07:26.966Z,9.01
2023-01-11T13:12:26.893Z,9.02
2023-01-11T13:17:26.847Z,9.02
2023-01-11T13:22:27.128Z,9.04
2023-01-11T13:27:26.767Z,9.02
2023-01-11T13:32:26.638Z,9.09
2023-01-11T13:37:28.273Z,9.12
2023-01-11T13:42:26.589Z,9.15
2023-01-11T13:47:26.476Z,9.23
2023-01-11T13:52:26.399Z,9.27
2023-01-11T13:57:26.345Z,9.31
2023-01-11T14:02:26.273Z,9.39
2023-01-11T14:07:26.311Z,9.42
2023-01-11T14:12:26.127Z,9.48
2023-01-11T14:17:26.173Z,9.50
2023-01-11T14:22:26.003Z,9.49
2023-01-11T14:27:26.014Z,9.39
2023-01-11T14:32:25.907Z,9.27
2023-01-11T14:37:25.843Z,9.18
2023-01-11T14:42:32.029Z,9.18
2023-01-11T14:47:26.680Z,9.02
2023-01-11T14:52:38.502Z,9.05
2023-01-11T14:57:26.588Z,8.93
2023-01-11T15:02:25.507Z,8.78
2023-01-11T15:07:25.530Z,8.79
2023-01-11T15:12:25.376Z,8.72
2023-01-11T15:17:25.371Z,8.81
2023-01-11T15:22:25.251Z,8.79
2023-01-11T15:27:25.204Z,8.87
2023-01-11T15:32:25.146Z,8.90
2023-01-11T15:37:25.050Z,8.88
2023-01-11T15:42:25.014Z,8.78
2023-01-11T15:47:24.911Z,8.73
2023-01-11T15:52:24.963Z,8.73
2023-01-11T15:57:24.805Z,8.65
2023-01-11T16:02:24.720Z,8.50
2023-01-11T16:07:24.682Z,8.51
2023-01-11T16:12:24.637Z,8.53
2023-01-11T16:17:24.590Z,8.53
2023-01-11T16:22:24.816Z,8.57
2023-01-11T16:27:24.449Z,8.65
2023-01-11T16:32:24.396Z,8.63
2023-01-11T16:37:24.309Z,8.65
2023-01-11T16:42:24.258Z,8.65
2023-01-11T16:47:24.176Z,8.73
2023-01-11T16:52:24.152Z,8.79
2023-01-11T16:57:24.781Z,8.91
2023-01-11T17:02:24.051Z,9.12
2023-01-11T17:07:23.951Z,9.32
2023-01-11T17:12:23.887Z,9.46
2023-01-11T17:17:23.879Z,9.67
2023-01-11T17:22:23.834Z,9.79
2023-01-11T17:27:23.687Z,9.82
2023-01-11T17:32:23.593Z,9.85
2023-01-11T17:37:24.783Z,9.88
2023-01-11T17:42:23.513Z,9.88
2023-01-11T17:47:23.535Z,9.86
2023-01-11T17:52:23.417Z,9.83
2023-01-11T17:57:23.329Z,9.85
2023-01-11T18:02:23.408Z,9.89
2023-01-11T18:07:23.443Z,9.94
2023-01-11T18:12:23.148Z,9.93
2023-01-11T18:17:24.604Z,10.15
2023-01-11T18:22:22.940Z,10.26
2023-01-11T18:27:22.834Z,10.19
2023-01-11T18:32:22.880Z,10.15
2023-01-11T18:37:24.880Z,10.32
2023-01-11T18:42:22.803Z,10.32
2023-01-11T18:47:23.375Z,10.46
2023-01-11T18:52:22.581Z,10.39
2023-01-11T18:57:22.398Z,10.40
2023-01-11T19:02:22.498Z,10.24
2023-01-11T19:07:22.307Z,10.36
2023-01-11T19:12:22.655Z,10.26
2023-01-11T19:17:22.428Z,10.36
2023-01-11T19:22:24.634Z,10.34
2023-01-11T19:27:22.034Z,10.53
2023-01-11T19:32:22.856Z,10.53
2023-01-11T19:37:22.490Z,10.60
2023-01-11T19:42:22.082Z,10.59
2023-01-11T19:47:21.948Z,10.65
2023-01-11T19:52:24.373Z,10.42
2023-01-11T19:57:21.683Z,10.26
2023-01-11T20:02:21.691Z,10.19
2023-01-11T20:07:21.924Z,10.18
2023-01-11T20:12:21.515Z,10.09
2023-01-11T20:17:21.666Z,10.00
2023-01-11T20:22:21.337Z,9.93
2023-01-11T20:27:21.233Z,9.93
2023-01-11T20:32:40.982Z,9.83
2023-01-11T20:37:22.065Z,9.85
2023-01-11T20:42:21.089Z,9.64
2023-01-11T20:47:21.023Z,9.58
2023-01-11T20:52:20.943Z,9.61
2023-01-11T20:57:20.859Z,9.63
2023-01-11T21:02:20.887Z,9.57
2023-01-11T21:07:20.763Z,9.57
2023-01-11T21:12:20.691Z,9.39
2023-01-11T21:17:20.568Z,9.32
2023-01-11T21:22:20.555Z,9.52
2023-01-11T21:27:20.589Z,9.39
2023-01-11T21:32:20.414Z,9.48
2023-01-11T21:37:20.623Z,9.60
2023-01-11T21:42:20.979Z,9.94
2023-01-11T21:47:20.308Z,9.81
2023-01-11T21:52:20.182Z,9.56
2023-01-11T21:57:20.143Z,9.68
2023-01-11T22:02:20.059Z,9.61
2023-01-11T22:07:19.938Z,9.35
2023-01-11T22:12:20.003Z,9.30
2023-01-11T22:17:19.831Z,9.38
2023-01-11T22:22:19.751Z,9.39
2023-01-11T22:27:19.726Z,9.12
2023-01-11T22:32:19.663Z,8.83
2023-01-11T22:37:19.559Z,8.68
2023-01-11T22:42:19.609Z,8.53
2023-01-11T22:47:19.401Z,8.35
2023-01-11T22:52:19.397Z,8.11
2023-01-11T22:57:19.318Z,8.12
2023-01-11T23:02:19.271Z,7.94
2023-01-11T23:07:19.227Z,7.77
2023-01-11T23:12:19.075Z,7.62
2023-01-11T23:17:19.071Z,7.58
2023-01-11T23:22:19.110Z,7.49
2023-01-11T23:27:18.953Z,7.26
2023-01-11T23:32:18.921Z,7.05
2023-01-11T23:37:18.792Z,7.08
2023-01-11T23:42:18.726Z,6.90
2023-01-11T23:47:18.731Z,6.73
2023-01-11T23:52:18.668Z,6.81
2023-01-11T23:57:18.523Z,6.73
